createdAt,value
2018-12-05T00:00:08.542Z,1.95
2018-12-05T00:01:09.136Z,2.01
2018-12-05T00:02:09.729Z,1.92
2018-12-05T00:03:10.323Z,1.90
2018-12-05T00:04:10.916Z,1.95
2018-12-05T00:05:11.524Z,1.88
2018-12-05T00:06:12.100Z,1.99
2018-12-05T00:07:12.693Z,1.84
2018-12-05T00:08:13.289Z,1.84
2018-12-05T00:09:13.880Z,1.92
2018-12-05T00:10:14.472Z,1.85
2018-12-05T00:11:15.058Z,1.88
2018-12-05T00:12:15.657Z,1.92
2018-12-05T00:13:16.247Z,1.85
2018-12-05T00:14:16.864Z,1.93
2018-12-05T00:15:17.453Z,1.82
2018-12-05T00:16:18.039Z,1.90
2018-12-05T00:17:18.624Z,1.81
2018-12-05T00:18:19.216Z,1.81
2018-12-05T00:19:19.812Z,1.78
2018-12-05T00:20:20.403Z,1.81
2018-12-05T00:21:20.995Z,1.78
2018-12-05T00:22:21.596Z,1.80
2018-12-05T00:23:22.183Z,1.89
2018-12-05T00:24:22.764Z,1.82
2018-12-05T00:25:23.405Z,1.84
2018-12-05T00:26:23.955Z,1.82
2018-12-05T00:27:24.545Z,1.80
2018-12-05T00:28:25.145Z,1.85
2018-12-05T00:29:25.735Z,1.81
2018-12-05T00:30:26.328Z,1.82
2018-12-05T00:31:26.914Z,1.84
2018-12-05T00:32:27.511Z,1.77
2018-12-05T00:33:28.103Z,1.80
2018-12-05T00:34:28.694Z,1.85
2018-12-05T00:35:29.288Z,1.89
2018-12-05T00:36:29.881Z,1.81
2018-12-05T00:37:30.469Z,1.84
2018-12-05T00:38:31.052Z,1.84
2018-12-05T00:39:31.644Z,1.78
2018-12-05T00:40:32.226Z,1.82
2018-12-05T00:41:32.815Z,1.75
2018-12-05T00:42:33.405Z,1.74
2018-12-05T00:43:34.010Z,1.70
2018-12-05T00:44:34.594Z,1.66
2018-12-05T00:45:35.188Z,1.66
2018-12-05T00:46:35.770Z,1.57
2018-12-05T00:47:36.372Z,1.46
2018-12-05T00:48:36.952Z,1.56
2018-12-05T00:49:37.540Z,1.48
2018-12-05T00:50:38.120Z,1.57
2018-12-05T00:51:38.707Z,1.54
2018-12-05T00:52:39.292Z,1.48
2018-12-05T00:53:39.892Z,1.50
2018-12-05T00:54:40.484Z,1.48
2018-12-05T00:55:41.142Z,1.44
2018-12-05T00:56:41.739Z,1.42
2018-12-05T00:57:42.333Z,1.39
2018-12-05T00:58:42.927Z,1.44
2018-12-05T00:59:43.525Z,1.46
2018-12-05T01:01:28.329Z,1.60
2018-12-05T01:02:28.944Z,1.52
2018-12-05T01:03:29.525Z,1.44
2018-12-05T01:04:30.106Z,1.56
2018-12-05T01:05:30.750Z,1.54
2018-12-05T01:06:31.292Z,1.50
2018-12-05T01:07:31.888Z,1.60
2018-12-05T01:08:32.473Z,1.60
2018-12-05T01:09:33.065Z,1.54
2018-12-05T01:10:33.671Z,1.59
2018-12-05T01:11:34.255Z,1.63
2018-12-05T01:12:34.843Z,1.54
2018-12-05T01:13:35.426Z,1.70
2018-12-05T01:14:36.021Z,1.62
2018-12-05T01:15:36.618Z,1.68
2018-12-05T01:16:37.210Z,1.68
2018-12-05T01:17:37.792Z,1.57
2018-12-05T01:18:38.377Z,1.56
2018-12-05T01:19:38.971Z,1.52
2018-12-05T01:20:39.568Z,1.57
2018-12-05T01:21:40.164Z,1.48
2018-12-05T01:22:40.744Z,1.54
2018-12-05T01:23:41.337Z,1.52
2018-12-05T01:24:41.929Z,1.53
2018-12-05T01:25:42.523Z,1.46
2018-12-05T01:26:43.113Z,1.48
2018-12-05T01:27:43.709Z,1.52
2018-12-05T01:28:44.303Z,1.50
2018-12-05T01:29:44.892Z,1.56
2018-12-05T01:30:45.486Z,1.56
2018-12-05T01:31:46.084Z,1.50
2018-12-05T01:32:46.673Z,1.57
2018-12-05T01:33:47.269Z,1.60
2018-12-05T01:34:47.859Z,1.64
2018-12-05T01:35:48.447Z,1.64
2018-12-05T01:36:49.039Z,1.64
2018-12-05T01:37:49.639Z,1.63
2018-12-05T01:38:50.230Z,1.50
2018-12-05T01:39:50.822Z,1.54
2018-12-05T01:40:51.413Z,1.48
2018-12-05T01:41:52.004Z,1.54
2018-12-05T01:42:52.597Z,1.52
2018-12-05T01:43:53.182Z,1.53
2018-12-05T01:44:53.777Z,1.52
2018-12-05T01:45:54.368Z,1.48
2018-12-05T01:46:54.965Z,1.59
2018-12-05T01:47:55.552Z,1.48
2018-12-05T01:48:56.141Z,1.50
2018-12-05T01:49:56.728Z,1.52
2018-12-05T01:50:57.314Z,1.45
2018-12-05T01:51:57.905Z,1.41
2018-12-05T01:52:58.517Z,1.42
2018-12-05T01:53:59.093Z,1.36
2018-12-05T01:54:59.682Z,1.35
2018-12-05T01:56:00.274Z,1.50
2018-12-05T01:57:00.866Z,1.44
2018-12-05T01:58:01.451Z,1.53
2018-12-05T01:59:02.038Z,1.45
2018-12-05T02:00:02.630Z,1.42
2018-12-05T02:01:03.209Z,1.41
2018-12-05T02:02:03.796Z,1.41
2018-12-05T02:03:04.390Z,1.39
2018-12-05T02:04:04.984Z,1.39
2018-12-05T02:05:05.584Z,1.52
2018-12-05T02:06:06.170Z,1.53
2018-12-05T02:07:06.764Z,1.50
2018-12-05T02:08:07.359Z,1.45
2018-12-05T02:09:07.951Z,1.53
2018-12-05T02:10:08.540Z,1.41
2018-12-05T02:11:09.132Z,1.45
2018-12-05T02:12:09.724Z,1.44
2018-12-05T02:13:10.316Z,1.35
2018-12-05T02:14:10.907Z,1.35
2018-12-05T02:15:11.503Z,1.26
2018-12-05T02:16:12.095Z,1.32
2018-12-05T02:17:12.689Z,1.27
2018-12-05T02:18:13.276Z,1.24
2018-12-05T02:19:13.858Z,1.31
2018-12-05T02:20:14.451Z,1.32
2018-12-05T02:21:15.049Z,1.32
2018-12-05T02:22:15.635Z,1.24
2018-12-05T02:23:16.233Z,1.31
2018-12-05T02:24:16.824Z,1.38
2018-12-05T02:25:17.408Z,1.36
2018-12-05T02:26:17.998Z,1.39
2018-12-05T02:27:18.587Z,1.45
2018-12-05T02:28:19.200Z,1.46
2018-12-05T02:29:19.776Z,1.53
2018-12-05T02:30:20.369Z,1.57
2018-12-05T02:31:20.977Z,1.57
2018-12-05T02:32:21.553Z,1.62
2018-12-05T02:33:22.145Z,1.63
2018-12-05T02:34:22.730Z,1.66
2018-12-05T02:35:23.325Z,1.68
2018-12-05T02:36:23.915Z,1.63
2018-12-05T02:37:24.501Z,1.64
2018-12-05T02:38:25.096Z,1.64
2018-12-05T02:39:25.691Z,1.57
2018-12-05T02:40:26.274Z,1.59
2018-12-05T02:41:26.860Z,1.57
2018-12-05T02:42:27.452Z,1.53
2018-12-05T02:43:28.046Z,1.68
2018-12-05T02:44:28.635Z,1.59
2018-12-05T02:45:29.252Z,1.56
2018-12-05T02:46:29.825Z,1.63
2018-12-05T02:47:30.426Z,1.68
2018-12-05T02:48:31.012Z,1.64
2018-12-05T02:49:31.604Z,1.63
2018-12-05T02:50:32.187Z,1.66
2018-12-05T02:51:32.788Z,1.66
2018-12-05T02:52:33.378Z,1.68
2018-12-05T02:53:33.971Z,1.56
2018-12-05T02:54:34.563Z,1.53
2018-12-05T02:55:35.156Z,1.50
2018-12-05T02:56:35.736Z,1.53
2018-12-05T02:57:36.333Z,1.45
2018-12-05T02:58:36.923Z,1.42
2018-12-05T02:59:37.520Z,1.28
2018-12-05T03:00:38.128Z,1.31
2018-12-05T03:01:38.712Z,1.31
2018-12-05T03:02:39.298Z,1.28
2018-12-05T03:03:39.883Z,1.24
2018-12-05T03:04:40.475Z,1.16
2018-12-05T03:05:41.070Z,1.14
2018-12-05T03:06:41.652Z,1.23
2018-12-05T03:07:42.246Z,1.20
2018-12-05T03:08:42.841Z,1.09
2018-12-05T03:09:43.422Z,1.13
2018-12-05T03:10:44.017Z,1.02
2018-12-05T03:11:44.619Z,1.10
2018-12-05T03:12:45.200Z,1.02
2018-12-05T03:13:45.796Z,1.05
2018-12-05T03:14:46.381Z,1.09
2018-12-05T03:15:46.975Z,1.10
2018-12-05T03:16:47.559Z,1.13
2018-12-05T03:17:48.160Z,1.05
2018-12-05T03:18:48.750Z,1.05
2018-12-05T03:19:49.334Z,1.08
2018-12-05T03:20:49.947Z,1.05
2018-12-05T03:21:50.518Z,0.99
2018-12-05T03:22:51.111Z,1.02
2018-12-05T03:23:51.703Z,1.03
2018-12-05T03:24:52.292Z,1.03
2018-12-05T03:25:52.886Z,0.98
2018-12-05T03:26:53.470Z,1.03
2018-12-05T03:27:54.065Z,0.99
2018-12-05T03:28:54.659Z,0.91
2018-12-05T03:29:55.248Z,0.93
2018-12-05T03:30:55.843Z,0.90
2018-12-05T03:31:56.441Z,0.91
2018-12-05T03:32:57.031Z,0.95
2018-12-05T03:33:57.627Z,0.96
2018-12-05T03:34:58.221Z,0.93
2018-12-05T03:35:58.803Z,0.98
2018-12-05T03:36:59.397Z,0.96
2018-12-05T03:37:59.988Z,0.99
2018-12-05T03:39:00.580Z,0.80
2018-12-05T03:40:01.177Z,0.85
2018-12-05T03:41:01.761Z,0.88
2018-12-05T03:42:02.359Z,0.75
2018-12-05T03:43:02.948Z,0.82
2018-12-05T03:44:03.572Z,0.82
2018-12-05T03:45:04.127Z,0.82
2018-12-05T03:46:04.719Z,0.80
2018-12-05T03:47:05.316Z,0.85
2018-12-05T03:48:05.909Z,0.88
2018-12-05T03:49:06.502Z,0.88
2018-12-05T03:50:07.095Z,0.80
2018-12-05T03:51:07.690Z,0.78
2018-12-05T03:52:08.300Z,0.84
2018-12-05T03:53:08.876Z,0.70
2018-12-05T03:54:09.468Z,0.81
2018-12-05T03:55:10.061Z,0.85
2018-12-05T03:56:10.657Z,0.81
2018-12-05T03:57:11.238Z,0.77
2018-12-05T03:58:11.840Z,0.90
2018-12-05T03:59:12.426Z,1.00
2018-12-05T04:00:13.023Z,0.99
2018-12-05T04:01:13.613Z,1.05
2018-12-05T04:02:14.213Z,1.05
2018-12-05T04:03:14.797Z,1.03
2018-12-05T04:04:15.392Z,1.13
2018-12-05T04:05:15.983Z,1.20
2018-12-05T04:06:16.576Z,1.18
2018-12-05T04:07:17.172Z,1.18
2018-12-05T04:08:17.763Z,1.20
2018-12-05T04:09:18.349Z,1.21
2018-12-05T04:10:18.942Z,1.16
2018-12-05T04:11:19.527Z,1.18
2018-12-05T04:12:20.122Z,1.23
2018-12-05T04:13:20.711Z,1.23
2018-12-05T04:14:21.301Z,1.17
2018-12-05T04:15:21.896Z,1.18
2018-12-05T04:16:22.487Z,1.21
2018-12-05T04:17:23.081Z,1.23
2018-12-05T04:18:23.678Z,1.17
2018-12-05T04:19:24.274Z,1.13
2018-12-05T04:20:24.856Z,1.00
2018-12-05T04:21:25.449Z,1.09
2018-12-05T04:22:26.036Z,0.99
2018-12-05T04:23:26.633Z,1.06
2018-12-05T04:24:27.217Z,1.00
2018-12-05T04:25:27.813Z,0.95
2018-12-05T04:26:28.403Z,0.91
2018-12-05T04:27:28.996Z,0.91
2018-12-05T04:28:29.581Z,0.80
2018-12-05T04:29:30.172Z,0.87
2018-12-05T04:30:30.767Z,0.84
2018-12-05T04:31:31.352Z,0.82
2018-12-05T04:32:31.948Z,0.88
2018-12-05T04:33:32.530Z,0.73
2018-12-05T04:34:33.127Z,0.84
2018-12-05T04:35:33.710Z,0.75
2018-12-05T04:36:34.305Z,0.66
2018-12-05T04:37:34.887Z,0.72
2018-12-05T04:38:35.482Z,0.72
2018-12-05T04:39:36.082Z,0.78
2018-12-05T04:40:36.667Z,0.66
2018-12-05T04:41:37.254Z,0.66
2018-12-05T04:42:37.845Z,0.69
2018-12-05T04:43:38.431Z,0.67
2018-12-05T04:44:39.024Z,0.67
2018-12-05T04:45:39.614Z,0.82
2018-12-05T04:46:40.229Z,0.87
2018-12-05T04:47:40.803Z,0.95
2018-12-05T04:48:41.396Z,0.98
2018-12-05T04:49:41.980Z,0.93
2018-12-05T04:50:42.575Z,0.90
2018-12-05T04:51:43.158Z,1.00
2018-12-05T04:52:43.755Z,1.06
2018-12-05T04:53:44.350Z,1.10
2018-12-05T04:54:44.938Z,1.13
2018-12-05T04:55:45.529Z,1.18
2018-12-05T04:56:46.120Z,1.20
2018-12-05T04:57:46.708Z,1.24
2018-12-05T04:58:47.300Z,1.34
2018-12-05T04:59:47.885Z,1.45
2018-12-05T05:00:48.481Z,1.54
2018-12-05T05:01:49.083Z,1.50
2018-12-05T05:02:49.672Z,1.52
2018-12-05T05:03:50.253Z,1.54
2018-12-05T05:04:50.843Z,1.62
2018-12-05T05:05:51.431Z,1.63
2018-12-05T05:06:52.023Z,1.68
2018-12-05T05:07:52.614Z,1.66
2018-12-05T05:08:53.242Z,1.63
2018-12-05T05:09:53.843Z,1.66
2018-12-05T05:10:54.427Z,1.70
2018-12-05T05:11:55.022Z,1.71
2018-12-05T05:12:55.660Z,1.77
2018-12-05T05:13:56.201Z,1.77
2018-12-05T05:14:56.820Z,1.80
2018-12-05T05:15:57.387Z,1.89
2018-12-05T05:16:57.985Z,1.82
2018-12-05T05:17:58.585Z,1.89
2018-12-05T05:18:59.165Z,1.90
2018-12-05T05:19:59.764Z,1.95
2018-12-05T05:21:00.345Z,1.88
2018-12-05T05:22:00.939Z,1.92
2018-12-05T05:23:01.521Z,1.93
2018-12-05T05:24:02.112Z,1.89
2018-12-05T05:25:02.704Z,1.97
2018-12-05T05:26:03.298Z,1.92
2018-12-05T05:27:03.887Z,2.01
2018-12-05T05:28:04.475Z,1.99
2018-12-05T05:29:05.065Z,2.04
2018-12-05T05:30:05.651Z,2.04
2018-12-05T05:31:06.244Z,2.04
2018-12-05T05:32:06.830Z,2.15
2018-12-05T05:33:07.428Z,2.14
2018-12-05T05:34:08.029Z,2.21
2018-12-05T05:35:08.612Z,2.17
2018-12-05T05:36:09.216Z,2.18
2018-12-05T05:37:09.802Z,2.19
2018-12-05T05:38:10.387Z,2.26
2018-12-05T05:39:10.982Z,2.30
2018-12-05T05:40:11.575Z,2.25
2018-12-05T05:41:12.161Z,2.33
2018-12-05T05:42:12.752Z,2.33
2018-12-05T05:43:13.344Z,2.30
2018-12-05T05:44:13.940Z,2.36
2018-12-05T05:45:14.526Z,2.29
2018-12-05T05:46:15.117Z,2.33
2018-12-05T05:47:15.705Z,2.33
2018-12-05T05:48:16.296Z,2.33
2018-12-05T05:49:16.893Z,2.35
2018-12-05T05:50:17.486Z,2.40
2018-12-05T05:51:18.081Z,2.33
2018-12-05T05:52:18.675Z,2.35
2018-12-05T05:53:19.268Z,2.33
2018-12-05T05:54:19.853Z,2.32
2018-12-05T05:55:20.445Z,2.40
2018-12-05T05:56:21.048Z,2.44
2018-12-05T05:57:21.635Z,2.42
2018-12-05T05:58:22.254Z,2.39
2018-12-05T05:59:22.818Z,2.40
2018-12-05T06:00:23.416Z,2.46
2018-12-05T06:01:24.000Z,2.44
2018-12-05T06:02:24.624Z,2.51
2018-12-05T06:03:25.220Z,2.47
2018-12-05T06:04:25.775Z,2.51
2018-12-05T06:05:26.360Z,2.47
2018-12-05T06:06:26.956Z,2.53
2018-12-05T06:07:27.551Z,2.57
2018-12-05T06:08:28.147Z,2.57
2018-12-05T06:09:28.741Z,2.47
2018-12-05T06:10:29.333Z,2.44
2018-12-05T06:11:29.928Z,2.39
2018-12-05T06:12:30.521Z,2.46
2018-12-05T06:13:31.117Z,2.60
2018-12-05T06:14:31.710Z,2.55
2018-12-05T06:15:32.309Z,2.69
2018-12-05T06:16:32.896Z,2.58
2018-12-05T06:17:33.484Z,2.64
2018-12-05T06:18:34.079Z,2.68
2018-12-05T06:19:34.670Z,2.75
2018-12-05T06:20:35.255Z,2.62
2018-12-05T06:21:35.850Z,2.75
2018-12-05T06:22:36.442Z,2.64
2018-12-05T06:23:37.029Z,2.65
2018-12-05T06:24:37.620Z,2.72
2018-12-05T06:25:38.207Z,2.78
2018-12-05T06:26:38.800Z,2.71
2018-12-05T06:27:39.413Z,2.79
2018-12-05T06:28:39.982Z,2.79
2018-12-05T06:29:40.578Z,2.72
2018-12-05T06:30:41.177Z,2.73
2018-12-05T06:31:41.759Z,2.78
2018-12-05T06:32:42.356Z,2.82
2018-12-05T06:33:42.951Z,2.83
2018-12-05T06:34:43.544Z,2.78
2018-12-05T06:35:44.137Z,2.73
2018-12-05T06:36:44.733Z,2.78
2018-12-05T06:37:45.330Z,2.83
2018-12-05T06:38:45.924Z,2.78
2018-12-05T06:39:46.510Z,2.79
2018-12-05T06:40:47.104Z,2.78
2018-12-05T06:41:47.691Z,2.89
2018-12-05T06:42:48.283Z,2.86
2018-12-05T06:43:48.870Z,2.90
2018-12-05T06:44:49.458Z,2.93
2018-12-05T06:45:50.048Z,2.91
2018-12-05T06:46:50.640Z,3.00
2018-12-05T06:47:51.230Z,2.94
2018-12-05T06:48:51.823Z,2.89
2018-12-05T06:49:52.417Z,2.91
2018-12-05T06:50:53.006Z,3.00
2018-12-05T06:51:53.602Z,2.97
2018-12-05T06:52:54.188Z,3.00
2018-12-05T06:53:54.782Z,3.02
2018-12-05T06:54:55.375Z,2.93
2018-12-05T06:55:55.969Z,2.97
2018-12-05T06:56:56.618Z,2.97
2018-12-05T06:57:57.212Z,2.97
2018-12-05T06:58:57.808Z,2.94
2018-12-05T06:59:58.404Z,3.02
2018-12-05T07:00:59.006Z,3.00
2018-12-05T07:01:59.595Z,3.00
2018-12-05T07:03:00.189Z,3.04
2018-12-05T07:04:00.783Z,3.07
2018-12-05T07:05:01.412Z,2.97
2018-12-05T07:06:01.962Z,3.04
2018-12-05T07:07:02.560Z,3.11
2018-12-05T07:08:03.155Z,3.12
2018-12-05T07:09:03.755Z,3.12
2018-12-05T07:10:04.355Z,3.08
2018-12-05T07:11:04.950Z,3.11
2018-12-05T07:12:05.539Z,3.09
2018-12-05T07:13:06.129Z,3.17
2018-12-05T07:14:06.720Z,3.09
2018-12-05T07:16:22.795Z,3.12
2018-12-05T07:17:23.391Z,3.12
2018-12-05T07:18:23.987Z,3.12
2018-12-05T07:19:24.585Z,3.22
2018-12-05T07:20:25.190Z,3.15
2018-12-05T07:21:25.781Z,3.27
2018-12-05T07:22:26.382Z,3.25
2018-12-05T07:23:26.977Z,3.29
2018-12-05T07:24:27.577Z,3.23
2018-12-05T07:25:28.185Z,3.19
2018-12-05T07:26:28.788Z,3.15
2018-12-05T07:27:29.394Z,3.20
2018-12-05T07:28:30.017Z,3.26
2018-12-05T07:29:30.744Z,3.26
2018-12-05T07:30:31.333Z,3.25
2018-12-05T07:31:31.960Z,3.30
2018-12-05T07:32:32.565Z,3.32
2018-12-05T07:33:33.163Z,3.32
2018-12-05T07:34:33.760Z,3.29
2018-12-05T07:35:34.359Z,3.35
2018-12-05T07:36:34.955Z,3.35
2018-12-05T07:37:35.547Z,3.32
2018-12-05T07:38:36.131Z,3.35
2018-12-05T07:39:36.724Z,3.32
2018-12-05T07:40:37.313Z,3.41
2018-12-05T07:41:37.908Z,3.45
2018-12-05T07:42:38.505Z,3.44
2018-12-05T07:43:39.097Z,3.45
2018-12-05T07:44:39.692Z,3.45
2018-12-05T07:45:40.290Z,3.49
2018-12-05T07:46:40.887Z,3.49
2018-12-05T07:47:41.478Z,3.45
2018-12-05T07:48:42.069Z,3.48
2018-12-05T07:49:42.659Z,3.42
2018-12-05T07:50:43.261Z,3.54
2018-12-05T07:51:43.859Z,3.60
2018-12-05T07:52:44.458Z,3.54
2018-12-05T07:53:45.058Z,3.52
2018-12-05T07:54:45.658Z,3.60
2018-12-05T07:55:46.336Z,3.67
2018-12-05T07:56:46.931Z,3.63
2018-12-05T07:57:47.537Z,3.64
2018-12-05T07:58:48.136Z,3.75
2018-12-05T07:59:48.738Z,3.69
2018-12-05T08:00:49.333Z,3.77
2018-12-05T08:01:49.932Z,3.75
2018-12-05T08:02:50.524Z,3.75
2018-12-05T08:03:51.146Z,3.75
2018-12-05T08:04:51.719Z,3.80
2018-12-05T08:05:52.318Z,3.72
2018-12-05T08:06:52.911Z,3.91
2018-12-05T08:07:53.507Z,3.78
2018-12-05T08:08:54.112Z,3.88
2018-12-05T08:09:54.710Z,3.78
2018-12-05T08:10:55.303Z,3.80
2018-12-05T08:11:55.906Z,3.88
2018-12-05T08:12:56.504Z,3.85
2018-12-05T08:13:57.093Z,3.93
2018-12-05T08:14:57.690Z,3.90
2018-12-05T08:15:58.291Z,3.96
2018-12-05T08:16:58.887Z,3.90
2018-12-05T08:17:59.486Z,4.00
2018-12-05T08:19:00.074Z,3.87
2018-12-05T08:20:00.666Z,3.99
2018-12-05T08:21:01.265Z,3.98
2018-12-05T08:22:01.855Z,4.03
2018-12-05T08:23:02.466Z,4.00
2018-12-05T08:24:03.052Z,3.99
2018-12-05T08:25:03.646Z,4.05
2018-12-05T08:26:04.245Z,4.09
2018-12-05T08:27:04.840Z,4.09
2018-12-05T08:28:05.440Z,4.13
2018-12-05T08:29:06.033Z,4.14
2018-12-05T08:30:06.637Z,4.16
2018-12-05T08:31:07.226Z,4.24
2018-12-05T08:32:07.825Z,4.27
2018-12-05T08:33:08.427Z,4.20
2018-12-05T08:34:09.025Z,4.17
2018-12-05T08:35:09.626Z,4.23
2018-12-05T08:36:10.227Z,4.31
2018-12-05T08:37:10.820Z,4.36
2018-12-05T08:38:11.419Z,4.32
2018-12-05T08:39:12.020Z,4.32
2018-12-05T08:40:12.621Z,4.38
2018-12-05T08:41:13.220Z,4.45
2018-12-05T08:42:13.820Z,4.38
2018-12-05T08:43:14.422Z,4.46
2018-12-05T08:44:15.033Z,4.46
2018-12-05T08:45:15.619Z,4.57
2018-12-05T08:46:16.212Z,4.54
2018-12-05T08:47:16.813Z,4.59
2018-12-05T08:48:17.414Z,4.71
2018-12-05T08:49:18.013Z,4.77
2018-12-05T08:50:18.614Z,4.85
2018-12-05T08:51:19.226Z,4.97
2018-12-05T08:52:19.819Z,5.11
2018-12-05T08:53:20.412Z,5.16
2018-12-05T08:54:21.489Z,5.22
2018-12-05T08:55:21.610Z,5.15
2018-12-05T08:56:22.211Z,5.24
2018-12-05T08:57:22.810Z,5.26
2018-12-05T08:58:23.411Z,5.19
2018-12-05T08:59:24.011Z,5.22
2018-12-05T09:00:24.613Z,5.16
2018-12-05T09:01:25.235Z,5.21
2018-12-05T09:02:25.817Z,5.18
2018-12-05T09:03:26.420Z,5.21
2018-12-05T09:04:27.029Z,5.27
2018-12-05T09:05:27.663Z,5.27
2018-12-05T09:06:28.264Z,5.27
2018-12-05T09:07:28.866Z,5.24
2018-12-05T09:08:29.470Z,5.22
2018-12-05T09:09:30.072Z,5.29
2018-12-05T09:10:30.675Z,5.40
2018-12-05T09:11:31.277Z,5.22
2018-12-05T09:12:31.880Z,5.40
2018-12-05T09:13:32.472Z,5.26
2018-12-05T09:14:33.079Z,5.29
2018-12-05T09:15:33.676Z,5.44
2018-12-05T09:16:34.271Z,5.51
2018-12-05T09:17:34.893Z,5.50
2018-12-05T09:18:35.506Z,5.50
2018-12-05T09:19:36.111Z,5.58
2018-12-05T09:20:36.715Z,5.60
2018-12-05T09:21:37.312Z,5.73
2018-12-05T09:22:41.214Z,5.84
2018-12-05T09:23:38.506Z,5.86
2018-12-05T09:24:39.099Z,5.94
2018-12-05T09:25:39.705Z,5.86
2018-12-05T09:26:40.313Z,5.90
2018-12-05T09:27:40.915Z,5.97
2018-12-05T09:28:41.508Z,5.88
2018-12-05T09:29:42.117Z,6.01
2018-12-05T09:30:42.716Z,5.99
2018-12-05T09:31:43.320Z,5.94
2018-12-05T09:32:43.926Z,6.12
2018-12-05T09:33:44.544Z,6.08
2018-12-05T09:34:45.147Z,6.06
2018-12-05T09:35:45.740Z,6.08
2018-12-05T09:36:46.344Z,6.08
2018-12-05T09:37:46.937Z,6.12
2018-12-05T09:38:47.540Z,6.12
2018-12-05T09:39:48.147Z,6.24
2018-12-05T09:40:48.747Z,6.27
2018-12-05T09:41:49.354Z,6.25
2018-12-05T09:42:49.946Z,6.24
2018-12-05T09:43:50.603Z,6.35
2018-12-05T09:44:51.185Z,6.35
2018-12-05T09:45:51.777Z,6.45
2018-12-05T09:46:52.372Z,6.39
2018-12-05T09:47:52.976Z,6.42
2018-12-05T09:48:53.578Z,6.39
2018-12-05T09:49:54.177Z,6.45
2018-12-05T09:50:54.780Z,6.35
2018-12-05T09:51:55.379Z,6.43
2018-12-05T09:52:55.981Z,6.35
2018-12-05T09:53:56.585Z,6.31
2018-12-05T09:54:57.184Z,6.39
2018-12-05T09:55:57.782Z,6.34
2018-12-05T09:56:58.387Z,6.42
2018-12-05T09:57:58.997Z,6.38
2018-12-05T09:58:59.600Z,6.39
2018-12-05T10:00:00.197Z,6.38
2018-12-05T10:01:00.794Z,6.45
2018-12-05T10:02:01.387Z,6.39
2018-12-05T10:03:01.995Z,6.40
2018-12-05T10:04:02.634Z,6.43
2018-12-05T10:05:03.204Z,6.43
2018-12-05T10:06:03.806Z,6.46
2018-12-05T10:07:04.406Z,6.52
2018-12-05T10:08:05.002Z,6.64
2018-12-05T10:09:05.603Z,6.64
2018-12-05T10:10:06.196Z,6.63
2018-12-05T10:11:06.795Z,6.71
2018-12-05T10:12:07.400Z,6.67
2018-12-05T10:13:08.005Z,6.73
2018-12-05T10:14:08.607Z,6.70
2018-12-05T10:15:09.213Z,6.67
2018-12-05T10:16:09.806Z,6.73
2018-12-05T10:17:10.424Z,6.81
2018-12-05T10:18:11.015Z,6.70
2018-12-05T10:19:11.629Z,6.78
2018-12-05T10:20:12.243Z,6.70
2018-12-05T10:21:12.833Z,6.75
2018-12-05T10:22:13.436Z,6.64
2018-12-05T10:23:14.039Z,6.68
2018-12-05T10:24:14.646Z,6.68
2018-12-05T10:25:15.244Z,6.64
2018-12-05T10:26:15.846Z,6.66
2018-12-05T10:27:16.449Z,6.64
2018-12-05T10:28:17.075Z,6.61
2018-12-05T10:29:17.665Z,6.71
2018-12-05T10:30:18.271Z,6.66
2018-12-05T10:31:18.868Z,6.63
2018-12-05T10:32:19.460Z,6.57
2018-12-05T10:33:20.062Z,6.63
2018-12-05T10:34:20.657Z,6.61
2018-12-05T10:35:21.260Z,6.52
2018-12-05T10:36:21.857Z,6.55
2018-12-05T10:37:22.449Z,6.58
2018-12-05T10:38:23.049Z,6.61
2018-12-05T10:39:23.653Z,6.60
2018-12-05T10:40:24.260Z,6.70
2018-12-05T10:41:24.857Z,6.73
2018-12-05T10:42:25.448Z,6.68
2018-12-05T10:43:26.054Z,6.66
2018-12-05T10:44:26.648Z,6.79
2018-12-05T10:45:27.251Z,6.71
2018-12-05T10:46:27.852Z,6.79
2018-12-05T10:47:28.448Z,6.73
2018-12-05T10:48:29.049Z,6.86
2018-12-05T10:49:29.647Z,6.82
2018-12-05T10:50:30.248Z,6.86
2018-12-05T10:51:30.846Z,7.00
2018-12-05T10:52:31.449Z,6.99
2018-12-05T10:53:32.043Z,6.94
2018-12-05T10:54:32.649Z,7.00
2018-12-05T10:55:33.243Z,6.99
2018-12-05T10:56:33.847Z,7.09
2018-12-05T10:57:34.451Z,7.21
2018-12-05T10:58:35.058Z,7.19
2018-12-05T10:59:35.657Z,7.22
2018-12-05T11:00:36.255Z,7.27
2018-12-05T11:01:36.859Z,7.28
2018-12-05T11:02:37.464Z,7.29
2018-12-05T11:03:38.066Z,7.29
2018-12-05T11:04:38.672Z,7.33
2018-12-05T11:05:39.273Z,7.32
2018-12-05T11:06:39.893Z,7.36
2018-12-05T11:07:40.481Z,7.47
2018-12-05T11:08:41.083Z,7.57
2018-12-05T11:09:41.700Z,7.55
2018-12-05T11:10:42.281Z,7.57
2018-12-05T11:11:42.885Z,7.61
2018-12-05T11:12:43.487Z,7.53
2018-12-05T11:13:44.095Z,7.60
2018-12-05T11:14:44.695Z,7.57
2018-12-05T11:15:45.291Z,7.63
2018-12-05T11:16:45.887Z,7.76
2018-12-05T11:17:46.484Z,7.66
2018-12-05T11:18:47.089Z,7.77
2018-12-05T11:19:47.732Z,7.80
2018-12-05T11:20:48.289Z,7.84
2018-12-05T11:21:49.773Z,8.02
2018-12-05T11:22:49.491Z,8.02
2018-12-05T11:23:50.101Z,7.95
2018-12-05T11:24:50.695Z,7.95
2018-12-05T11:25:51.303Z,8.01
2018-12-05T11:26:51.905Z,7.95
2018-12-05T11:27:52.514Z,8.01
2018-12-05T11:28:53.117Z,7.99
2018-12-05T11:29:53.718Z,8.02
2018-12-05T11:30:54.341Z,7.98
2018-12-05T11:31:54.936Z,8.04
2018-12-05T11:32:55.532Z,8.06
2018-12-05T11:33:56.138Z,8.12
2018-12-05T11:34:56.740Z,8.06
2018-12-05T11:35:57.350Z,8.13
2018-12-05T11:36:57.953Z,8.17
2018-12-05T11:37:58.549Z,8.27
2018-12-05T11:38:59.150Z,8.52
2018-12-05T11:39:59.748Z,8.58
2018-12-05T11:41:00.354Z,8.74
2018-12-05T11:42:00.961Z,8.96
2018-12-05T11:43:01.562Z,9.11
2018-12-05T11:44:02.151Z,9.45
2018-12-05T11:45:02.759Z,9.71
2018-12-05T11:46:03.366Z,9.80
2018-12-05T11:47:03.977Z,10.04
2018-12-05T11:48:04.569Z,10.17
2018-12-05T11:49:05.167Z,10.34
2018-12-05T11:50:05.771Z,10.14
2018-12-05T11:51:06.449Z,10.06
2018-12-05T11:52:06.991Z,10.01
2018-12-05T11:53:07.591Z,10.24
2018-12-05T11:54:08.199Z,10.20
2018-12-05T11:55:08.820Z,10.16
2018-12-05T11:56:09.417Z,10.19
2018-12-05T11:57:10.066Z,9.87
2018-12-05T11:58:10.690Z,9.86
2018-12-05T11:59:11.316Z,9.63
2018-12-05T12:00:11.910Z,9.74
2018-12-05T12:01:12.513Z,9.88
2018-12-05T12:02:13.113Z,9.66
2018-12-05T12:03:13.705Z,9.56
2018-12-05T12:04:14.310Z,9.36
2018-12-05T12:05:14.912Z,9.32
2018-12-05T12:06:15.518Z,9.26
2018-12-05T12:07:16.121Z,9.20
2018-12-05T12:08:16.722Z,9.11
2018-12-05T12:09:17.322Z,9.14
2018-12-05T12:10:17.931Z,9.03
2018-12-05T12:11:18.530Z,8.92
2018-12-05T12:12:19.127Z,8.84
2018-12-05T12:13:19.731Z,8.86
2018-12-05T12:14:20.335Z,8.78
2018-12-05T12:15:20.936Z,8.74
2018-12-05T12:16:21.553Z,8.59
2018-12-05T12:17:22.146Z,8.55
2018-12-05T12:18:22.749Z,8.58
2018-12-05T12:19:23.346Z,8.64
2018-12-05T12:20:23.951Z,8.64
2018-12-05T12:21:24.545Z,8.74
2018-12-05T12:22:25.142Z,8.68
2018-12-05T12:23:25.740Z,8.76
2018-12-05T12:24:26.347Z,8.68
2018-12-05T12:25:26.951Z,8.73
2018-12-05T12:26:33.238Z,8.76
2018-12-05T12:27:28.155Z,8.74
2018-12-05T12:28:28.761Z,8.85
2018-12-05T12:29:29.368Z,8.86
2018-12-05T12:30:29.975Z,8.76
2018-12-05T12:31:30.573Z,8.66
2018-12-05T12:32:31.182Z,8.70
2018-12-05T12:33:31.780Z,8.67
2018-12-05T12:34:32.383Z,8.74
2018-12-05T12:35:32.987Z,8.74
2018-12-05T12:36:33.593Z,8.82
2018-12-05T12:37:34.185Z,8.88
2018-12-05T12:38:34.792Z,8.92
2018-12-05T12:39:35.386Z,9.00
2018-12-05T12:40:35.993Z,8.84
2018-12-05T12:41:36.601Z,8.91
2018-12-05T12:42:37.205Z,8.88
2018-12-05T12:43:37.812Z,8.93
2018-12-05T12:44:38.422Z,8.93
2018-12-05T12:45:39.018Z,8.93
2018-12-05T12:46:39.612Z,8.96
2018-12-05T12:47:40.210Z,8.95
2018-12-05T12:48:40.816Z,9.01
2018-12-05T12:49:41.420Z,8.95
2018-12-05T12:50:42.027Z,9.08
2018-12-05T12:51:42.675Z,8.96
2018-12-05T12:52:43.273Z,9.00
2018-12-05T12:53:43.881Z,9.00
2018-12-05T12:54:44.492Z,9.04
2018-12-05T12:55:45.090Z,9.08
2018-12-05T12:56:45.705Z,9.08
2018-12-05T12:57:46.313Z,9.11
2018-12-05T12:58:46.919Z,9.12
2018-12-05T12:59:47.527Z,9.11
2018-12-05T13:00:48.128Z,9.26
2018-12-05T13:01:48.735Z,9.26
2018-12-05T13:02:49.341Z,9.29
2018-12-05T13:03:49.951Z,9.22
2018-12-05T13:04:50.550Z,8.96
2018-12-05T13:05:51.187Z,9.15
2018-12-05T13:06:51.769Z,9.10
2018-12-05T13:07:52.374Z,9.12
2018-12-05T13:08:52.969Z,9.04
2018-12-05T13:09:53.569Z,9.01
2018-12-05T13:10:54.159Z,8.96
2018-12-05T13:11:54.762Z,9.01
2018-12-05T13:12:55.366Z,8.96
2018-12-05T13:13:55.953Z,8.96
2018-12-05T13:14:56.549Z,9.00
2018-12-05T13:15:57.156Z,8.95
2018-12-05T13:16:57.757Z,8.95
2018-12-05T13:17:58.363Z,8.93
2018-12-05T13:18:58.972Z,8.95
2018-12-05T13:19:59.571Z,8.98
2018-12-05T13:21:00.265Z,8.96
2018-12-05T13:22:00.788Z,8.95
2018-12-05T13:23:01.398Z,8.77
2018-12-05T13:24:01.999Z,8.92
2018-12-05T13:25:02.599Z,8.85
2018-12-05T13:26:03.204Z,8.77
2018-12-05T13:27:03.808Z,8.76
2018-12-05T13:28:04.410Z,8.70